ePrivacy and GPDR Cookie Consent by Cookie Consent
EmailTwitter


Surface observations / United Kingdom / EGTE (03839)

Regions: Quebec | Canada | USA | Europe | France | UK | Elsewhere
Station
Display
Info & Location for EGTE (03839) | Help decoding METAR

Weather Conditions observed on 2022/12/08 at 23:50 UTC at EXETER AIRPORT, UK (EGTE)

Temperature: 0.0 Celsius.

Dewpoint: -2.0 Celsius.

Relative Humidity: 86%

Winds: Variable at 2 km/h or 1 knots.

Mean Sea level Pressure: 101.00 kilopascals.

Coded METAR:

EGTE 082350Z VRB01KT CAVOK M00/M02 Q1010=